Řízení letového provozu České republiky
Letiste: LKPD Aktualizace: 20.01.2019 10:01:06  UTC
 METAR LKPD 20.01. 10:00 ...
METAR LKPD 201000Z 06003KT 020V090 9999 BKN035 M01/M06 Q1017 NOSIG RMK BLU BLU=
 TAF LKPD 20.01. 05:00 ...
TAF LKPD 200500Z 2006/2106 VRB02KT 9999 BKN030      BECMG 2017/2020 CAVOK      TEMPO 2100/2106 4000 BR=